sensor_id;sensor_type;location;lat;lon;timestamp;P1;durP1;ratioP1;P2;durP2;ratioP2
11568;SDS011;5840;46.894;15.542;2023-02-24T00:01:36;44.43;;;39.77;;
11568;SDS011;5840;46.894;15.542;2023-02-24T00:04:04;44.77;;;39.77;;
11568;SDS011;5840;46.894;15.542;2023-02-24T00:06:36;41.63;;;37.17;;
11568;SDS011;5840;46.894;15.542;2023-02-24T00:09:05;43.97;;;39.27;;
11568;SDS011;5840;46.894;15.542;2023-02-24T00:11:34;41.97;;;37.50;;
11568;SDS011;5840;46.894;15.542;2023-02-24T00:14:03;41.33;;;37.23;;
11568;SDS011;5840;46.894;15.542;2023-02-24T00:16:31;43.23;;;38.87;;
11568;SDS011;5840;46.894;15.542;2023-02-24T00:18:59;42.03;;;37.83;;
11568;SDS011;5840;46.894;15.542;2023-02-24T00:21:27;43.07;;;38.73;;
11568;SDS011;5840;46.894;15.542;2023-02-24T00:23:55;43.53;;;39.13;;
11568;SDS011;5840;46.894;15.542;2023-02-24T00:26:24;44.67;;;40.20;;
11568;SDS011;5840;46.894;15.542;2023-02-24T00:28:53;44.73;;;40.33;;
11568;SDS011;5840;46.894;15.542;2023-02-24T00:31:21;48.57;;;43.57;;
11568;SDS011;5840;46.894;15.542;2023-02-24T00:33:48;50.37;;;45.10;;
11568;SDS011;5840;46.894;15.542;2023-02-24T00:36:17;51.73;;;46.17;;
11568;SDS011;5840;46.894;15.542;2023-02-24T00:38:48;48.03;;;43.33;;
11568;SDS011;5840;46.894;15.542;2023-02-24T00:41:17;49.97;;;44.80;;
11568;SDS011;5840;46.894;15.542;2023-02-24T00:43:47;48.53;;;43.50;;
11568;SDS011;5840;46.894;15.542;2023-02-24T00:46:15;48.47;;;43.37;;
11568;SDS011;5840;46.894;15.542;2023-02-24T00:48:44;48.40;;;43.37;;
11568;SDS011;5840;46.894;15.542;2023-02-24T00:51:12;43.37;;;39.03;;
11568;SDS011;5840;46.894;15.542;2023-02-24T00:53:42;45.23;;;40.47;;
11568;SDS011;5840;46.894;15.542;2023-02-24T00:56:10;44.20;;;39.63;;
11568;SDS011;5840;46.894;15.542;2023-02-24T00:58:38;44.03;;;39.10;;
11568;SDS011;5840;46.894;15.542;2023-02-24T01:01:10;44.93;;;40.07;;
11568;SDS011;5840;46.894;15.542;2023-02-24T01:03:38;45.67;;;40.80;;
11568;SDS011;5840;46.894;15.542;2023-02-24T01:06:06;47.93;;;43.07;;
11568;SDS011;5840;46.894;15.542;2023-02-24T01:08:33;46.93;;;42.00;;
11568;SDS011;5840;46.894;15.542;2023-02-24T01:11:04;49.47;;;44.33;;
11568;SDS011;5840;46.894;15.542;2023-02-24T01:13:51;51.77;;;46.27;;
11568;SDS011;5840;46.894;15.542;2023-02-24T01:16:18;52.67;;;47.20;;
11568;SDS011;5840;46.894;15.542;2023-02-24T01:18:45;48.47;;;43.37;;
11568;SDS011;5840;46.894;15.542;2023-02-24T01:21:12;50.67;;;45.10;;
11568;SDS011;5840;46.894;15.542;2023-02-24T01:23:40;51.30;;;45.93;;
11568;SDS011;5840;46.894;15.542;2023-02-24T01:26:07;48.37;;;43.37;;
11568;SDS011;5840;46.894;15.542;2023-02-24T01:28:35;47.70;;;42.77;;
11568;SDS011;5840;46.894;15.542;2023-02-24T01:31:04;49.40;;;43.83;;
11568;SDS011;5840;46.894;15.542;2023-02-24T01:33:32;48.33;;;43.23;;
11568;SDS011;5840;46.894;15.542;2023-02-24T01:36:10;47.87;;;43.03;;
11568;SDS011;5840;46.894;15.542;2023-02-24T01:38:39;48.47;;;43.37;;
11568;SDS011;5840;46.894;15.542;2023-02-24T01:41:08;50.67;;;45.10;;
11568;SDS011;5840;46.894;15.542;2023-02-24T01:43:53;50.43;;;45.07;;
11568;SDS011;5840;46.894;15.542;2023-02-24T01:46:24;49.20;;;44.10;;
11568;SDS011;5840;46.894;15.542;2023-02-24T01:48:51;47.73;;;42.63;;
11568;SDS011;5840;46.894;15.542;2023-02-24T01:51:22;46.43;;;41.50;;
11568;SDS011;5840;46.894;15.542;2023-02-24T01:53:51;45.07;;;40.33;;
11568;SDS011;5840;46.894;15.542;2023-02-24T01:56:19;46.23;;;41.40;;
11568;SDS011;5840;46.894;15.542;2023-02-24T01:58:46;48.37;;;43.47;;
11568;SDS011;5840;46.894;15.542;2023-02-24T02:01:14;45.40;;;40.47;;
11568;SDS011;5840;46.894;15.542;2023-02-24T02:03:45;45.10;;;40.27;;
11568;SDS011;5840;46.894;15.542;2023-02-24T02:06:13;43.43;;;38.93;;
11568;SDS011;5840;46.894;15.542;2023-02-24T02:08:42;43.43;;;38.97;;
11568;SDS011;5840;46.894;15.542;2023-02-24T02:11:11;45.00;;;40.43;;
11568;SDS011;5840;46.894;15.542;2023-02-24T02:13:44;43.83;;;39.50;;
11568;SDS011;5840;46.894;15.542;2023-02-24T02:19:32;46.93;;;41.83;;
11568;SDS011;5840;46.894;15.542;2023-02-24T02:22:40;47.60;;;42.27;;
11568;SDS011;5840;46.894;15.542;2023-02-24T02:25:33;47.27;;;42.20;;
11568;SDS011;5840;46.894;15.542;2023-02-24T02:28:18;48.77;;;43.00;;
11568;SDS011;5840;46.894;15.542;2023-02-24T02:34:24;45.97;;;41.00;;
11568;SDS011;5840;46.894;15.542;2023-02-24T02:37:00;46.73;;;41.63;;
11568;SDS011;5840;46.894;15.542;2023-02-24T02:39:35;45.93;;;41.00;;
11568;SDS011;5840;46.894;15.542;2023-02-24T02:42:14;43.77;;;39.13;;
11568;SDS011;5840;46.894;15.542;2023-02-24T02:44:50;47.03;;;40.77;;
11568;SDS011;5840;46.894;15.542;2023-02-24T02:47:24;45.83;;;41.03;;
11568;SDS011;5840;46.894;15.542;2023-02-24T02:49:58;46.47;;;41.53;;
11568;SDS011;5840;46.894;15.542;2023-02-24T02:52:34;44.80;;;40.00;;
11568;SDS011;5840;46.894;15.542;2023-02-24T02:55:06;48.70;;;43.00;;
11568;SDS011;5840;46.894;15.542;2023-02-24T02:57:38;46.90;;;42.00;;
11568;SDS011;5840;46.894;15.542;2023-02-24T03:00:12;48.23;;;43.03;;
11568;SDS011;5840;46.894;15.542;2023-02-24T03:02:46;50.37;;;45.07;;
11568;SDS011;5840;46.894;15.542;2023-02-24T03:05:18;48.57;;;43.33;;
11568;SDS011;5840;46.894;15.542;2023-02-24T03:07:53;47.13;;;42.17;;
11568;SDS011;5840;46.894;15.542;2023-02-24T03:10:23;49.53;;;44.30;;
11568;SDS011;5840;46.894;15.542;2023-02-24T03:12:53;48.80;;;43.70;;
11568;SDS011;5840;46.894;15.542;2023-02-24T03:15:23;50.63;;;45.20;;
11568;SDS011;5840;46.894;15.542;2023-02-24T03:17:55;49.67;;;44.37;;
11568;SDS011;5840;46.894;15.542;2023-02-24T03:20:28;48.30;;;42.43;;
11568;SDS011;5840;46.894;15.542;2023-02-24T03:22:58;47.87;;;42.87;;
11568;SDS011;5840;46.894;15.542;2023-02-24T03:25:32;48.20;;;43.07;;
11568;SDS011;5840;46.894;15.542;2023-02-24T03:28:05;48.37;;;43.23;;
11568;SDS011;5840;46.894;15.542;2023-02-24T03:30:41;48.70;;;43.50;;
11568;SDS011;5840;46.894;15.542;2023-02-24T03:33:15;46.33;;;41.33;;
11568;SDS011;5840;46.894;15.542;2023-02-24T03:35:49;46.73;;;41.77;;
11568;SDS011;5840;46.894;15.542;2023-02-24T03:38:16;49.37;;;44.17;;
11568;SDS011;5840;46.894;15.542;2023-02-24T03:40:46;49.60;;;44.40;;
11568;SDS011;5840;46.894;15.542;2023-02-24T03:43:15;46.17;;;41.50;;
11568;SDS011;5840;46.894;15.542;2023-02-24T03:45:46;44.70;;;40.00;;
11568;SDS011;5840;46.894;15.542;2023-02-24T03:48:13;44.90;;;40.27;;
11568;SDS011;5840;46.894;15.542;2023-02-24T03:50:41;43.30;;;38.80;;
11568;SDS011;5840;46.894;15.542;2023-02-24T03:53:20;47.47;;;42.57;;
11568;SDS011;5840;46.894;15.542;2023-02-24T03:55:59;44.87;;;40.40;;
11568;SDS011;5840;46.894;15.542;2023-02-24T03:58:37;46.93;;;41.80;;
11568;SDS011;5840;46.894;15.542;2023-02-24T04:01:13;47.00;;;42.13;;
11568;SDS011;5840;46.894;15.542;2023-02-24T04:03:47;46.37;;;41.03;;
11568;SDS011;5840;46.894;15.542;2023-02-24T04:06:24;48.17;;;42.97;;
11568;SDS011;5840;46.894;15.542;2023-02-24T04:09:02;47.73;;;42.83;;
11568;SDS011;5840;46.894;15.542;2023-02-24T04:11:35;47.70;;;42.97;;
11568;SDS011;5840;46.894;15.542;2023-02-24T04:14:11;48.77;;;43.57;;
11568;SDS011;5840;46.894;15.542;2023-02-24T04:16:44;51.40;;;45.23;;
11568;SDS011;5840;46.894;15.542;2023-02-24T04:19:17;49.43;;;44.13;;
11568;SDS011;5840;46.894;15.542;2023-02-24T04:21:46;50.67;;;45.17;;
11568;SDS011;5840;46.894;15.542;2023-02-24T04:24:16;50.90;;;45.73;;
11568;SDS011;5840;46.894;15.542;2023-02-24T04:26:45;51.03;;;45.83;;
11568;SDS011;5840;46.894;15.542;2023-02-24T04:29:14;49.77;;;44.67;;
11568;SDS011;5840;46.894;15.542;2023-02-24T04:31:47;51.57;;;46.17;;
11568;SDS011;5840;46.894;15.542;2023-02-24T04:34:17;49.40;;;44.33;;
11568;SDS011;5840;46.894;15.542;2023-02-24T04:36:45;47.23;;;42.13;;
11568;SDS011;5840;46.894;15.542;2023-02-24T04:39:15;47.47;;;39.97;;
11568;SDS011;5840;46.894;15.542;2023-02-24T04:41:44;42.47;;;37.77;;
11568;SDS011;5840;46.894;15.542;2023-02-24T04:44:13;42.03;;;37.63;;
11568;SDS011;5840;46.894;15.542;2023-02-24T04:46:42;42.87;;;38.30;;
11568;SDS011;5840;46.894;15.542;2023-02-24T04:49:09;40.47;;;36.27;;
11568;SDS011;5840;46.894;15.542;2023-02-24T04:51:37;38.93;;;35.13;;
11568;SDS011;5840;46.894;15.542;2023-02-24T04:54:06;40.23;;;34.77;;
11568;SDS011;5840;46.894;15.542;2023-02-24T04:56:35;39.20;;;35.10;;
11568;SDS011;5840;46.894;15.542;2023-02-24T04:59:04;37.77;;;33.87;;
11568;SDS011;5840;46.894;15.542;2023-02-24T05:01:34;36.60;;;32.63;;
11568;SDS011;5840;46.894;15.542;2023-02-24T05:04:03;37.43;;;33.53;;
11568;SDS011;5840;46.894;15.542;2023-02-24T05:06:31;42.23;;;37.97;;
11568;SDS011;5840;46.894;15.542;2023-02-24T05:08:58;40.73;;;36.70;;
11568;SDS011;5840;46.894;15.542;2023-02-24T05:11:29;43.87;;;39.40;;
11568;SDS011;5840;46.894;15.542;2023-02-24T05:14:00;44.27;;;39.80;;
11568;SDS011;5840;46.894;15.542;2023-02-24T05:16:28;43.27;;;38.97;;
11568;SDS011;5840;46.894;15.542;2023-02-24T05:18:56;46.17;;;41.47;;
11568;SDS011;5840;46.894;15.542;2023-02-24T05:21:36;43.73;;;38.37;;
11568;SDS011;5840;46.894;15.542;2023-02-24T05:24:06;42.93;;;38.23;;
11568;SDS011;5840;46.894;15.542;2023-02-24T05:26:35;44.37;;;39.87;;
11568;SDS011;5840;46.894;15.542;2023-02-24T05:29:07;39.87;;;35.70;;
11568;SDS011;5840;46.894;15.542;2023-02-24T05:31:34;38.43;;;34.27;;
11568;SDS011;5840;46.894;15.542;2023-02-24T05:34:02;41.00;;;36.70;;
11568;SDS011;5840;46.894;15.542;2023-02-24T05:36:30;45.53;;;40.63;;
11568;SDS011;5840;46.894;15.542;2023-02-24T05:38:59;41.73;;;37.20;;
11568;SDS011;5840;46.894;15.542;2023-02-24T05:41:31;40.17;;;36.07;;
11568;SDS011;5840;46.894;15.542;2023-02-24T05:44:00;41.20;;;37.00;;
11568;SDS011;5840;46.894;15.542;2023-02-24T05:46:34;38.93;;;34.97;;
11568;SDS011;5840;46.894;15.542;2023-02-24T05:49:03;40.67;;;36.47;;
11568;SDS011;5840;46.894;15.542;2023-02-24T05:51:33;39.17;;;35.17;;
11568;SDS011;5840;46.894;15.542;2023-02-24T05:54:03;39.30;;;35.13;;
11568;SDS011;5840;46.894;15.542;2023-02-24T05:56:31;41.27;;;36.80;;
11568;SDS011;5840;46.894;15.542;2023-02-24T05:59:00;40.37;;;36.17;;
11568;SDS011;5840;46.894;15.542;2023-02-24T06:01:29;42.60;;;38.00;;
11568;SDS011;5840;46.894;15.542;2023-02-24T06:03:59;50.13;;;45.13;;
11568;SDS011;5840;46.894;15.542;2023-02-24T06:06:30;42.13;;;37.73;;
11568;SDS011;5840;46.894;15.542;2023-02-24T06:09:01;46.70;;;41.83;;
11568;SDS011;5840;46.894;15.542;2023-02-24T06:11:33;41.77;;;37.23;;
11568;SDS011;5840;46.894;15.542;2023-02-24T06:14:00;40.33;;;35.97;;
11568;SDS011;5840;46.894;15.542;2023-02-24T06:16:29;37.97;;;34.10;;
11568;SDS011;5840;46.894;15.542;2023-02-24T06:18:56;36.13;;;32.53;;
11568;SDS011;5840;46.894;15.542;2023-02-24T06:21:25;35.67;;;31.97;;
11568;SDS011;5840;46.894;15.542;2023-02-24T06:23:53;34.87;;;31.27;;
11568;SDS011;5840;46.894;15.542;2023-02-24T06:26:20;36.60;;;32.90;;
11568;SDS011;5840;46.894;15.542;2023-02-24T06:28:50;34.47;;;30.73;;
11568;SDS011;5840;46.894;15.542;2023-02-24T06:31:18;36.03;;;32.33;;
11568;SDS011;5840;46.894;15.542;2023-02-24T06:33:46;34.57;;;31.03;;
11568;SDS011;5840;46.894;15.542;2023-02-24T06:36:14;36.40;;;32.53;;
11568;SDS011;5840;46.894;15.542;2023-02-24T06:38:41;35.40;;;31.70;;
11568;SDS011;5840;46.894;15.542;2023-02-24T06:41:08;33.17;;;29.67;;
11568;SDS011;5840;46.894;15.542;2023-02-24T06:43:36;31.97;;;28.63;;
11568;SDS011;5840;46.894;15.542;2023-02-24T06:46:04;35.70;;;31.97;;
11568;SDS011;5840;46.894;15.542;2023-02-24T06:48:32;34.53;;;30.93;;
11568;SDS011;5840;46.894;15.542;2023-02-24T06:51:02;33.20;;;29.83;;
11568;SDS011;5840;46.894;15.542;2023-02-24T06:53:32;33.77;;;30.27;;
11568;SDS011;5840;46.894;15.542;2023-02-24T06:56:03;33.97;;;30.37;;
11568;SDS011;5840;46.894;15.542;2023-02-24T06:58:38;32.00;;;28.50;;
11568;SDS011;5840;46.894;15.542;2023-02-24T07:01:07;41.13;;;36.80;;
11568;SDS011;5840;46.894;15.542;2023-02-24T07:03:36;47.33;;;42.40;;
11568;SDS011;5840;46.894;15.542;2023-02-24T07:06:11;42.20;;;37.80;;
11568;SDS011;5840;46.894;15.542;2023-02-24T07:08:57;38.27;;;34.37;;
11568;SDS011;5840;46.894;15.542;2023-02-24T07:11:27;37.87;;;33.67;;
11568;SDS011;5840;46.894;15.542;2023-02-24T07:13:54;35.50;;;31.80;;
11568;SDS011;5840;46.894;15.542;2023-02-24T07:16:22;37.43;;;33.47;;
11568;SDS011;5840;46.894;15.542;2023-02-24T07:18:52;51.80;;;46.17;;
11568;SDS011;5840;46.894;15.542;2023-02-24T07:21:20;49.47;;;44.27;;
11568;SDS011;5840;46.894;15.542;2023-02-24T07:23:49;46.10;;;41.60;;
11568;SDS011;5840;46.894;15.542;2023-02-24T07:26:22;45.90;;;41.10;;
11568;SDS011;5840;46.894;15.542;2023-02-24T07:28:51;43.57;;;39.17;;
11568;SDS011;5840;46.894;15.542;2023-02-24T07:31:21;41.93;;;37.73;;
11568;SDS011;5840;46.894;15.542;2023-02-24T07:33:51;41.73;;;37.43;;
11568;SDS011;5840;46.894;15.542;2023-02-24T07:36:22;42.57;;;38.20;;
11568;SDS011;5840;46.894;15.542;2023-02-24T07:38:54;43.07;;;38.57;;
11568;SDS011;5840;46.894;15.542;2023-02-24T07:41:25;41.13;;;36.93;;
11568;SDS011;5840;46.894;15.542;2023-02-24T07:43:52;41.20;;;36.90;;
11568;SDS011;5840;46.894;15.542;2023-02-24T07:46:24;40.70;;;36.63;;
11568;SDS011;5840;46.894;15.542;2023-02-24T07:48:53;43.33;;;38.73;;
11568;SDS011;5840;46.894;15.542;2023-02-24T07:51:23;41.17;;;36.93;;
11568;SDS011;5840;46.894;15.542;2023-02-24T07:53:52;39.57;;;35.60;;
11568;SDS011;5840;46.894;15.542;2023-02-24T07:56:21;40.73;;;36.43;;
11568;SDS011;5840;46.894;15.542;2023-02-24T07:58:52;41.27;;;37.07;;
11568;SDS011;5840;46.894;15.542;2023-02-24T08:01:24;40.40;;;36.23;;
11568;SDS011;5840;46.894;15.542;2023-02-24T08:03:53;40.83;;;36.63;;
11568;SDS011;5840;46.894;15.542;2023-02-24T08:06:21;38.87;;;35.10;;
11568;SDS011;5840;46.894;15.542;2023-02-24T08:08:52;39.37;;;35.37;;
11568;SDS011;5840;46.894;15.542;2023-02-24T08:11:24;39.77;;;35.77;;
11568;SDS011;5840;46.894;15.542;2023-02-24T08:13:53;37.77;;;34.03;;
11568;SDS011;5840;46.894;15.542;2023-02-24T08:16:23;37.20;;;33.60;;
11568;SDS011;5840;46.894;15.542;2023-02-24T08:19:03;37.77;;;33.97;;
11568;SDS011;5840;46.894;15.542;2023-02-24T08:21:30;36.87;;;33.17;;
11568;SDS011;5840;46.894;15.542;2023-02-24T08:24:02;35.13;;;31.50;;
11568;SDS011;5840;46.894;15.542;2023-02-24T08:26:29;36.70;;;33.10;;
11568;SDS011;5840;46.894;15.542;2023-02-24T08:28:58;36.40;;;32.87;;
11568;SDS011;5840;46.894;15.542;2023-02-24T08:31:25;35.77;;;32.27;;
11568;SDS011;5840;46.894;15.542;2023-02-24T08:33:51;35.60;;;32.20;;
11568;SDS011;5840;46.894;15.542;2023-02-24T08:36:20;35.57;;;32.33;;
11568;SDS011;5840;46.894;15.542;2023-02-24T08:38:50;34.53;;;31.20;;
11568;SDS011;5840;46.894;15.542;2023-02-24T08:41:18;34.57;;;31.07;;
11568;SDS011;5840;46.894;15.542;2023-02-24T08:43:53;35.47;;;31.90;;
11568;SDS011;5840;46.894;15.542;2023-02-24T08:46:22;35.90;;;32.43;;
11568;SDS011;5840;46.894;15.542;2023-02-24T08:48:51;34.70;;;31.43;;
11568;SDS011;5840;46.894;15.542;2023-02-24T08:51:21;34.30;;;31.10;;
11568;SDS011;5840;46.894;15.542;2023-02-24T08:53:53;34.00;;;30.73;;
11568;SDS011;5840;46.894;15.542;2023-02-24T08:56:22;34.00;;;30.47;;
11568;SDS011;5840;46.894;15.542;2023-02-24T08:58:52;35.27;;;31.87;;
11568;SDS011;5840;46.894;15.542;2023-02-24T09:01:24;34.63;;;31.23;;
11568;SDS011;5840;46.894;15.542;2023-02-24T09:03:58;34.90;;;31.63;;
11568;SDS011;5840;46.894;15.542;2023-02-24T09:06:33;36.17;;;32.57;;
11568;SDS011;5840;46.894;15.542;2023-02-24T09:09:02;33.53;;;30.10;;
11568;SDS011;5840;46.894;15.542;2023-02-24T09:11:42;34.10;;;30.80;;
11568;SDS011;5840;46.894;15.542;2023-02-24T09:14:11;32.43;;;29.17;;
11568;SDS011;5840;46.894;15.542;2023-02-24T09:16:44;33.53;;;30.20;;
11568;SDS011;5840;46.894;15.542;2023-02-24T09:19:30;32.43;;;29.27;;
11568;SDS011;5840;46.894;15.542;2023-02-24T09:22:27;31.47;;;28.47;;
11568;SDS011;5840;46.894;15.542;2023-02-24T09:24:55;31.20;;;28.10;;
11568;SDS011;5840;46.894;15.542;2023-02-24T09:27:42;29.90;;;26.97;;
11568;SDS011;5840;46.894;15.542;2023-02-24T09:30:10;27.80;;;25.00;;
11568;SDS011;5840;46.894;15.542;2023-02-24T09:33:03;26.07;;;23.37;;
11568;SDS011;5840;46.894;15.542;2023-02-24T09:35:41;25.77;;;23.30;;
11568;SDS011;5840;46.894;15.542;2023-02-24T09:38:11;26.77;;;24.10;;
11568;SDS011;5840;46.894;15.542;2023-02-24T09:40:41;25.53;;;23.03;;
11568;SDS011;5840;46.894;15.542;2023-02-24T09:43:17;25.87;;;23.47;;
11568;SDS011;5840;46.894;15.542;2023-02-24T09:45:51;24.03;;;21.73;;
11568;SDS011;5840;46.894;15.542;2023-02-24T09:48:28;22.70;;;20.40;;
11568;SDS011;5840;46.894;15.542;2023-02-24T09:51:08;23.33;;;21.13;;
11568;SDS011;5840;46.894;15.542;2023-02-24T09:53:45;25.27;;;22.87;;
11568;SDS011;5840;46.894;15.542;2023-02-24T09:56:17;23.97;;;21.60;;
11568;SDS011;5840;46.894;15.542;2023-02-24T09:58:49;23.80;;;21.40;;
11568;SDS011;5840;46.894;15.542;2023-02-24T10:01:27;24.10;;;21.80;;
11568;SDS011;5840;46.894;15.542;2023-02-24T10:04:01;24.20;;;21.80;;
11568;SDS011;5840;46.894;15.542;2023-02-24T10:06:36;24.97;;;22.63;;
11568;SDS011;5840;46.894;15.542;2023-02-24T10:09:08;24.77;;;22.37;;
11568;SDS011;5840;46.894;15.542;2023-02-24T10:11:46;23.80;;;21.40;;
11568;SDS011;5840;46.894;15.542;2023-02-24T10:14:28;22.83;;;20.57;;
11568;SDS011;5840;46.894;15.542;2023-02-24T10:17:06;23.17;;;21.03;;
11568;SDS011;5840;46.894;15.542;2023-02-24T10:19:50;21.93;;;19.83;;
11568;SDS011;5840;46.894;15.542;2023-02-24T10:22:26;23.93;;;21.53;;
11568;SDS011;5840;46.894;15.542;2023-02-24T10:28:18;23.70;;;21.30;;
11568;SDS011;5840;46.894;15.542;2023-02-24T10:31:00;23.07;;;20.93;;
11568;SDS011;5840;46.894;15.542;2023-02-24T10:33:35;23.20;;;20.83;;
11568;SDS011;5840;46.894;15.542;2023-02-24T10:36:11;23.17;;;21.07;;
11568;SDS011;5840;46.894;15.542;2023-02-24T10:38:41;21.63;;;19.43;;
11568;SDS011;5840;46.894;15.542;2023-02-24T10:41:09;23.50;;;21.13;;
11568;SDS011;5840;46.894;15.542;2023-02-24T10:43:38;23.53;;;21.20;;
11568;SDS011;5840;46.894;15.542;2023-02-24T10:46:21;22.70;;;20.57;;
11568;SDS011;5840;46.894;15.542;2023-02-24T10:48:52;21.10;;;19.00;;
11568;SDS011;5840;46.894;15.542;2023-02-24T10:51:27;22.50;;;19.90;;
11568;SDS011;5840;46.894;15.542;2023-02-24T10:54:04;22.90;;;20.60;;
11568;SDS011;5840;46.894;15.542;2023-02-24T10:56:46;23.80;;;21.50;;
11568;SDS011;5840;46.894;15.542;2023-02-24T10:59:39;23.10;;;20.87;;
11568;SDS011;5840;46.894;15.542;2023-02-24T11:02:35;23.53;;;21.23;;
11568;SDS011;5840;46.894;15.542;2023-02-24T11:05:20;23.63;;;21.33;;
11568;SDS011;5840;46.894;15.542;2023-02-24T11:08:12;23.03;;;20.83;;
11568;SDS011;5840;46.894;15.542;2023-02-24T11:11:00;22.73;;;20.53;;
11568;SDS011;5840;46.894;15.542;2023-02-24T11:13:32;23.10;;;20.90;;
11568;SDS011;5840;46.894;15.542;2023-02-24T11:16:18;22.50;;;20.30;;
11568;SDS011;5840;46.894;15.542;2023-02-24T11:19:04;22.33;;;20.23;;
11568;SDS011;5840;46.894;15.542;2023-02-24T11:21:31;22.47;;;20.37;;
11568;SDS011;5840;46.894;15.542;2023-02-24T11:24:00;24.50;;;22.00;;
11568;SDS011;5840;46.894;15.542;2023-02-24T11:26:31;24.33;;;21.93;;
11568;SDS011;5840;46.894;15.542;2023-02-24T11:29:10;23.67;;;21.27;;
11568;SDS011;5840;46.894;15.542;2023-02-24T11:31:57;23.37;;;21.10;;
11568;SDS011;5840;46.894;15.542;2023-02-24T11:34:42;22.93;;;20.67;;
11568;SDS011;5840;46.894;15.542;2023-02-24T11:37:20;24.80;;;22.20;;
11568;SDS011;5840;46.894;15.542;2023-02-24T11:40:00;22.80;;;20.77;;
11568;SDS011;5840;46.894;15.542;2023-02-24T11:42:33;23.93;;;21.53;;
11568;SDS011;5840;46.894;15.542;2023-02-24T11:45:06;27.60;;;24.63;;
11568;SDS011;5840;46.894;15.542;2023-02-24T11:47:41;23.77;;;21.37;;
11568;SDS011;5840;46.894;15.542;2023-02-24T11:50:18;22.87;;;20.67;;
11568;SDS011;5840;46.894;15.542;2023-02-24T11:52:54;24.23;;;21.63;;
11568;SDS011;5840;46.894;15.542;2023-02-24T11:55:25;23.90;;;21.57;;
11568;SDS011;5840;46.894;15.542;2023-02-24T11:57:59;23.07;;;20.87;;
11568;SDS011;5840;46.894;15.542;2023-02-24T12:00:31;23.73;;;21.40;;
11568;SDS011;5840;46.894;15.542;2023-02-24T12:03:03;22.97;;;20.67;;
11568;SDS011;5840;46.894;15.542;2023-02-24T12:05:38;22.93;;;20.63;;
11568;SDS011;5840;46.894;15.542;2023-02-24T12:08:10;21.90;;;19.73;;
11568;SDS011;5840;46.894;15.542;2023-02-24T12:10:43;22.63;;;20.40;;
11568;SDS011;5840;46.894;15.542;2023-02-24T12:13:16;22.10;;;19.77;;
11568;SDS011;5840;46.894;15.542;2023-02-24T12:15:47;22.60;;;20.20;;
11568;SDS011;5840;46.894;15.542;2023-02-24T12:18:22;22.03;;;19.83;;
11568;SDS011;5840;46.894;15.542;2023-02-24T12:20:53;22.03;;;19.87;;
11568;SDS011;5840;46.894;15.542;2023-02-24T12:23:24;21.60;;;19.60;;
11568;SDS011;5840;46.894;15.542;2023-02-24T12:26:02;21.57;;;19.47;;
11568;SDS011;5840;46.894;15.542;2023-02-24T12:28:44;21.07;;;18.97;;
11568;SDS011;5840;46.894;15.542;2023-02-24T12:31:28;22.13;;;19.83;;
11568;SDS011;5840;46.894;15.542;2023-02-24T12:34:04;20.40;;;18.47;;
11568;SDS011;5840;46.894;15.542;2023-02-24T12:36:42;20.77;;;18.73;;
11568;SDS011;5840;46.894;15.542;2023-02-24T12:39:19;20.33;;;18.43;;
11568;SDS011;5840;46.894;15.542;2023-02-24T12:42:00;19.77;;;17.77;;
11568;SDS011;5840;46.894;15.542;2023-02-24T12:44:35;18.20;;;16.33;;
11568;SDS011;5840;46.894;15.542;2023-02-24T12:47:09;16.47;;;14.77;;
11568;SDS011;5840;46.894;15.542;2023-02-24T12:49:52;16.40;;;14.30;;
11568;SDS011;5840;46.894;15.542;2023-02-24T12:52:33;16.00;;;14.30;;
11568;SDS011;5840;46.894;15.542;2023-02-24T12:55:10;17.20;;;14.43;;
11568;SDS011;5840;46.894;15.542;2023-02-24T12:57:43;16.90;;;15.10;;
11568;SDS011;5840;46.894;15.542;2023-02-24T13:00:19;16.43;;;14.80;;
11568;SDS011;5840;46.894;15.542;2023-02-24T13:03:05;16.90;;;15.20;;
11568;SDS011;5840;46.894;15.542;2023-02-24T13:05:46;18.17;;;15.57;;
11568;SDS011;5840;46.894;15.542;2023-02-24T13:08:21;17.67;;;15.40;;
11568;SDS011;5840;46.894;15.542;2023-02-24T13:10:59;18.67;;;15.67;;
11568;SDS011;5840;46.894;15.542;2023-02-24T13:13:36;17.27;;;15.23;;
11568;SDS011;5840;46.894;15.542;2023-02-24T13:16:09;18.37;;;15.00;;
11568;SDS011;5840;46.894;15.542;2023-02-24T13:18:37;17.07;;;15.27;;
11568;SDS011;5840;46.894;15.542;2023-02-24T13:21:05;16.77;;;13.87;;
11568;SDS011;5840;46.894;15.542;2023-02-24T13:23:50;17.07;;;14.23;;
11568;SDS011;5840;46.894;15.542;2023-02-24T13:26:21;16.70;;;14.57;;
11568;SDS011;5840;46.894;15.542;2023-02-24T13:28:55;16.73;;;14.50;;
11568;SDS011;5840;46.894;15.542;2023-02-24T13:31:25;17.97;;;14.57;;
11568;SDS011;5840;46.894;15.542;2023-02-24T13:33:52;15.83;;;13.43;;
11568;SDS011;5840;46.894;15.542;2023-02-24T13:36:21;15.83;;;14.03;;
11568;SDS011;5840;46.894;15.542;2023-02-24T13:38:50;16.50;;;14.33;;
11568;SDS011;5840;46.894;15.542;2023-02-24T13:41:36;17.57;;;13.87;;
11568;SDS011;5840;46.894;15.542;2023-02-24T13:44:23;18.57;;;15.20;;
11568;SDS011;5840;46.894;15.542;2023-02-24T13:53:04;17.30;;;14.40;;
11568;SDS011;5840;46.894;15.542;2023-02-24T13:55:45;18.07;;;16.13;;
11568;SDS011;5840;46.894;15.542;2023-02-24T13:58:36;17.87;;;15.63;;
11568;SDS011;5840;46.894;15.542;2023-02-24T14:01:16;18.23;;;16.33;;
11568;SDS011;5840;46.894;15.542;2023-02-24T14:03:45;18.23;;;15.67;;
11568;SDS011;5840;46.894;15.542;2023-02-24T14:06:26;19.50;;;15.83;;
11568;SDS011;5840;46.894;15.542;2023-02-24T14:08:54;19.97;;;15.77;;
11568;SDS011;5840;46.894;15.542;2023-02-24T14:11:23;18.07;;;14.27;;
11568;SDS011;5840;46.894;15.542;2023-02-24T14:13:53;16.93;;;15.07;;
11568;SDS011;5840;46.894;15.542;2023-02-24T14:16:24;18.07;;;15.87;;
11568;SDS011;5840;46.894;15.542;2023-02-24T14:18:55;16.50;;;14.80;;
11568;SDS011;5840;46.894;15.542;2023-02-24T14:21:24;19.43;;;16.73;;
11568;SDS011;5840;46.894;15.542;2023-02-24T14:23:55;18.87;;;15.63;;
11568;SDS011;5840;46.894;15.542;2023-02-24T14:26:23;19.17;;;16.00;;
11568;SDS011;5840;46.894;15.542;2023-02-24T14:28:52;20.97;;;17.67;;
11568;SDS011;5840;46.894;15.542;2023-02-24T14:31:22;17.43;;;15.10;;
11568;SDS011;5840;46.894;15.542;2023-02-24T14:33:56;17.63;;;14.53;;
11568;SDS011;5840;46.894;15.542;2023-02-24T14:36:25;17.47;;;14.53;;
11568;SDS011;5840;46.894;15.542;2023-02-24T14:38:59;15.63;;;13.90;;
11568;SDS011;5840;46.894;15.542;2023-02-24T14:41:29;16.80;;;14.70;;
11568;SDS011;5840;46.894;15.542;2023-02-24T14:43:56;18.37;;;15.23;;
11568;SDS011;5840;46.894;15.542;2023-02-24T14:46:24;16.60;;;13.63;;
11568;SDS011;5840;46.894;15.542;2023-02-24T14:48:52;17.10;;;14.13;;
11568;SDS011;5840;46.894;15.542;2023-02-24T14:51:21;16.70;;;14.90;;
11568;SDS011;5840;46.894;15.542;2023-02-24T14:53:53;16.70;;;13.80;;
11568;SDS011;5840;46.894;15.542;2023-02-24T14:56:25;16.73;;;13.67;;
11568;SDS011;5840;46.894;15.542;2023-02-24T14:58:56;17.13;;;15.00;;
11568;SDS011;5840;46.894;15.542;2023-02-24T15:01:29;18.43;;;14.00;;
11568;SDS011;5840;46.894;15.542;2023-02-24T15:03:59;17.57;;;13.97;;
11568;SDS011;5840;46.894;15.542;2023-02-24T15:06:39;15.43;;;13.00;;
11568;SDS011;5840;46.894;15.542;2023-02-24T15:09:10;15.73;;;13.63;;